createdAt,value
2022-10-25T00:01:02.385Z,20.69
2022-10-25T00:05:54.923Z,20.7
2022-10-25T00:10:47.661Z,20.68
2022-10-25T00:15:40.308Z,20.69
2022-10-25T00:20:32.894Z,20.69
2022-10-25T00:25:25.447Z,20.67
2022-10-25T00:35:10.787Z,20.68
2022-10-25T00:44:55.931Z,20.67
2022-10-25T00:49:48.687Z,20.66
2022-10-25T00:54:41.222Z,20.65
2022-10-25T00:59:33.950Z,20.65
2022-10-25T01:04:26.601Z,20.64
2022-10-25T01:09:19.171Z,20.65
2022-10-25T01:14:11.795Z,20.64
2022-10-25T01:19:04.284Z,20.65
2022-10-25T01:23:56.798Z,20.63
2022-10-25T01:28:49.703Z,20.62
2022-10-25T01:33:42.185Z,20.62
2022-10-25T01:38:34.708Z,20.62
2022-10-25T01:43:27.461Z,20.62
2022-10-25T01:48:20.158Z,20.62
2022-10-25T01:53:12.719Z,20.61
2022-10-25T01:58:05.292Z,20.61
2022-10-25T02:02:57.405Z,20.6
2022-10-25T02:07:49.804Z,20.6
2022-10-25T02:12:42.397Z,20.59
2022-10-25T02:17:35.100Z,20.58
2022-10-25T02:22:27.803Z,20.59
2022-10-25T02:27:20.455Z,20.57
2022-10-25T02:32:13.020Z,20.58
2022-10-25T02:37:05.726Z,20.57
2022-10-25T02:41:58.365Z,20.56
2022-10-25T02:46:49.745Z,20.56
2022-10-25T02:51:42.913Z,20.54
2022-10-25T02:56:35.404Z,20.55
2022-10-25T03:01:27.706Z,20.54
2022-10-25T03:06:20.013Z,20.54
2022-10-25T03:11:12.432Z,20.54
2022-10-25T03:16:04.856Z,20.53
2022-10-25T03:20:57.354Z,20.54
2022-10-25T03:25:50.871Z,20.53
2022-10-25T03:30:42.397Z,20.53
2022-10-25T03:35:34.968Z,20.52
2022-10-25T03:40:27.573Z,20.52
2022-10-25T03:45:20.127Z,20.52
2022-10-25T03:50:12.845Z,20.52
2022-10-25T03:55:05.509Z,20.52
2022-10-25T03:59:58.051Z,20.5
2022-10-25T04:04:50.719Z,20.51
2022-10-25T04:09:44.969Z,20.52
2022-10-25T04:14:37.220Z,20.51
2022-10-25T04:19:29.623Z,20.49
2022-10-25T04:24:22.047Z,20.47
2022-10-25T04:29:14.481Z,20.46
2022-10-25T04:34:07.140Z,20.45
2022-10-25T04:38:59.967Z,20.77
2022-10-25T04:43:52.610Z,20.88
2022-10-25T04:48:45.049Z,20.96
2022-10-25T04:53:37.589Z,21.09
2022-10-25T04:58:31.184Z,21.12
2022-10-25T05:03:22.565Z,21.13
2022-10-25T05:08:15.219Z,20.89
2022-10-25T05:13:07.421Z,21.03
2022-10-25T05:18:00.376Z,21.21
2022-10-25T05:22:53.110Z,21.32
2022-10-25T05:27:45.593Z,21.39
2022-10-25T05:32:38.188Z,21.42
2022-10-25T05:37:30.727Z,21.5
2022-10-25T05:42:23.441Z,21.49
2022-10-25T05:47:16.221Z,21.56
2022-10-25T05:52:08.629Z,21.57
2022-10-25T05:57:01.266Z,21.48
2022-10-25T06:01:53.608Z,21.24
2022-10-25T06:06:46.100Z,21.24
2022-10-25T06:11:38.743Z,21.2
2022-10-25T06:16:31.189Z,21.18
2022-10-25T06:21:23.581Z,21.18
2022-10-25T06:31:08.615Z,21.12
2022-10-25T06:36:00.976Z,21.09
2022-10-25T06:40:53.493Z,21.09
2022-10-25T06:50:38.650Z,21
2022-10-25T06:55:31.223Z,20.98
2022-10-25T07:00:23.809Z,20.96
2022-10-25T07:05:16.161Z,20.95
2022-10-25T07:10:08.538Z,20.92
2022-10-25T07:15:01.125Z,20.92
2022-10-25T07:19:53.383Z,20.87
2022-10-25T07:24:45.886Z,20.87
2022-10-25T07:29:37.874Z,20.83
2022-10-25T07:34:30.530Z,20.82
2022-10-25T07:39:22.995Z,20.81
2022-10-25T07:44:17.579Z,20.8
2022-10-25T07:49:08.109Z,20.8
2022-10-25T07:54:00.596Z,20.78
2022-10-25T07:58:53.129Z,20.77
2022-10-25T08:03:46.444Z,20.76
2022-10-25T08:08:39.290Z,20.75
2022-10-25T08:13:31.552Z,20.74
2022-10-25T08:18:23.850Z,20.74
2022-10-25T08:23:16.397Z,20.74
2022-10-25T08:28:09.190Z,20.78
2022-10-25T08:33:01.359Z,20.74
2022-10-25T08:37:54.047Z,20.73
2022-10-25T08:42:46.505Z,20.73
2022-10-25T08:47:39.188Z,20.74
2022-10-25T08:52:31.943Z,20.74
2022-10-25T08:57:24.515Z,20.73
2022-10-25T09:02:17.254Z,20.73
2022-10-25T09:07:09.768Z,20.74
2022-10-25T09:12:02.417Z,20.74
2022-10-25T09:16:54.937Z,20.74
2022-10-25T09:21:47.482Z,20.72
2022-10-25T09:26:39.855Z,20.75
2022-10-25T09:31:32.362Z,20.75
2022-10-25T09:36:24.802Z,20.77
2022-10-25T09:41:17.649Z,20.75
2022-10-25T09:46:09.750Z,20.75
2022-10-25T09:51:02.234Z,20.75
2022-10-25T09:55:54.998Z,20.74
2022-10-25T10:00:47.418Z,20.74
2022-10-25T10:05:39.860Z,20.79
2022-10-25T10:10:32.358Z,20.75
2022-10-25T10:15:24.947Z,20.76
2022-10-25T10:20:17.577Z,20.77
2022-10-25T10:25:10.066Z,20.76
2022-10-25T10:30:02.665Z,20.77
2022-10-25T10:34:55.217Z,20.77
2022-10-25T10:39:47.850Z,20.76
2022-10-25T10:44:40.329Z,20.81
2022-10-25T10:49:32.906Z,20.82
2022-10-25T10:54:25.202Z,20.8
2022-10-25T10:59:17.814Z,20.85
2022-10-25T11:04:10.302Z,20.87
2022-10-25T11:09:02.862Z,20.87
2022-10-25T11:13:56.508Z,20.87
2022-10-25T11:18:47.948Z,20.88
2022-10-25T11:23:40.206Z,20.89
2022-10-25T11:28:32.601Z,20.9
2022-10-25T11:33:25.296Z,20.9
2022-10-25T11:38:18.038Z,20.89
2022-10-25T11:43:10.507Z,20.9
2022-10-25T11:48:03.046Z,20.95
2022-10-25T11:52:56.067Z,20.97
2022-10-25T11:57:48.148Z,20.97
2022-10-25T12:02:40.697Z,20.96
2022-10-25T12:07:33.224Z,20.99
2022-10-25T12:12:27.745Z,21
2022-10-25T12:17:19.815Z,20.99
2022-10-25T12:22:12.060Z,20.99
2022-10-25T12:27:04.427Z,21.01
2022-10-25T12:31:56.880Z,21.01
2022-10-25T12:36:49.631Z,21
2022-10-25T12:41:42.002Z,21.02
2022-10-25T12:46:34.697Z,21.01
2022-10-25T12:51:26.402Z,21.03
2022-10-25T12:56:18.734Z,21.02
2022-10-25T13:01:11.142Z,21.02
2022-10-25T13:06:03.032Z,21.02
2022-10-25T13:10:55.609Z,21.01
2022-10-25T13:15:48.181Z,21.02
2022-10-25T13:20:40.628Z,21.01
2022-10-25T13:25:33.229Z,21.01
2022-10-25T13:35:18.637Z,21.01
2022-10-25T13:45:03.267Z,21
2022-10-25T13:49:55.958Z,21
2022-10-25T13:54:48.438Z,21
2022-10-25T13:59:40.855Z,21.01
2022-10-25T14:04:33.518Z,21.02
2022-10-25T14:09:26.049Z,21.01
2022-10-25T14:14:18.430Z,21.02
2022-10-25T14:19:10.988Z,21.02
2022-10-25T14:24:03.483Z,21.02
2022-10-25T14:28:55.970Z,21.03
2022-10-25T14:33:48.566Z,21.02
2022-10-25T14:38:40.636Z,21.01
2022-10-25T14:43:33.132Z,21.03
2022-10-25T14:48:25.464Z,21.02
2022-10-25T14:53:18.179Z,21.04
2022-10-25T14:58:10.909Z,21.04
2022-10-25T15:03:03.229Z,21.05
2022-10-25T15:07:55.710Z,21.02
2022-10-25T15:12:49.763Z,21.02
2022-10-25T15:17:40.834Z,21.01
2022-10-25T15:22:33.214Z,20.99
2022-10-25T15:27:25.237Z,21
2022-10-25T15:32:18.804Z,20.96
2022-10-25T15:37:10.067Z,20.97
2022-10-25T15:42:02.514Z,20.96
2022-10-25T15:46:54.970Z,20.95
2022-10-25T15:51:47.195Z,20.99
2022-10-25T15:56:39.867Z,20.97
2022-10-25T16:01:32.554Z,20.96
2022-10-25T16:06:24.652Z,20.95
2022-10-25T16:11:16.788Z,20.98
2022-10-25T16:16:22.092Z,21.01
2022-10-25T16:21:01.876Z,21.01
2022-10-25T16:25:54.245Z,21.01
2022-10-25T16:30:46.682Z,21.02
2022-10-25T16:35:39.093Z,21.04
2022-10-25T16:40:31.660Z,21.01
2022-10-25T16:45:24.096Z,21.02
2022-10-25T16:50:16.519Z,21.02
2022-10-25T16:55:09.883Z,21.01
2022-10-25T17:00:02.236Z,21
2022-10-25T17:04:53.681Z,21
2022-10-25T17:09:46.129Z,21
2022-10-25T17:14:38.686Z,20.99
2022-10-25T17:19:31.224Z,21
2022-10-25T17:24:23.711Z,20.99
2022-10-25T17:29:17.379Z,20.98
2022-10-25T17:34:08.848Z,20.98
2022-10-25T17:39:01.553Z,20.97
2022-10-25T17:43:55.890Z,20.97
2022-10-25T17:48:46.297Z,20.98
2022-10-25T17:53:38.732Z,20.98
2022-10-25T17:58:31.072Z,20.96
2022-10-25T18:03:23.423Z,20.95
2022-10-25T18:08:15.706Z,20.96
2022-10-25T18:13:07.816Z,20.95
2022-10-25T18:18:00.472Z,20.94
2022-10-25T18:22:52.814Z,20.94
2022-10-25T18:27:45.733Z,20.93
2022-10-25T18:32:37.561Z,20.93
2022-10-25T18:37:29.941Z,20.93
2022-10-25T18:42:22.439Z,20.92
2022-10-25T18:47:14.780Z,20.91
2022-10-25T18:52:07.583Z,20.91
2022-10-25T18:56:59.965Z,20.89
2022-10-25T19:01:52.577Z,20.88
2022-10-25T19:06:45.341Z,20.88
2022-10-25T19:11:37.445Z,20.88
2022-10-25T19:21:22.319Z,20.88
2022-10-25T19:31:07.298Z,20.86
2022-10-25T19:35:59.829Z,20.87
2022-10-25T19:40:52.456Z,20.87
2022-10-25T19:45:45.050Z,20.88
2022-10-25T19:50:37.310Z,20.87
2022-10-25T19:55:29.848Z,20.88
2022-10-25T20:00:22.780Z,20.85
2022-10-25T20:05:15.082Z,20.86
2022-10-25T20:10:08.747Z,20.85
2022-10-25T20:15:00.319Z,20.84
2022-10-25T20:19:52.783Z,20.83
2022-10-25T20:24:45.343Z,20.81
2022-10-25T20:29:37.744Z,20.81
2022-10-25T20:34:31.230Z,20.81
2022-10-25T20:39:22.907Z,20.8
2022-10-25T20:44:14.966Z,20.79
2022-10-25T20:49:07.283Z,20.79
2022-10-25T20:53:59.959Z,20.77
2022-10-25T20:58:52.396Z,20.77
2022-10-25T21:03:45.171Z,20.77
2022-10-25T21:08:37.475Z,20.75
2022-10-25T21:13:30.066Z,20.73
2022-10-25T21:18:22.964Z,20.73
2022-10-25T21:23:15.628Z,20.73
2022-10-25T21:28:08.138Z,20.71
2022-10-25T21:33:04.738Z,20.73
2022-10-25T21:37:56.424Z,20.7
2022-10-25T21:42:48.665Z,20.7
2022-10-25T21:47:41.225Z,20.68
2022-10-25T21:52:33.914Z,20.67
2022-10-25T21:57:26.525Z,20.68
2022-10-25T22:02:19.432Z,20.68
2022-10-25T22:07:11.770Z,20.66
2022-10-25T22:12:04.373Z,20.65
2022-10-25T22:16:56.659Z,20.67
2022-10-25T22:21:49.366Z,20.65
2022-10-25T22:26:41.904Z,20.64
2022-10-25T22:31:34.325Z,20.63
2022-10-25T22:36:26.873Z,20.64
2022-10-25T22:41:19.393Z,20.63
2022-10-25T22:46:11.870Z,20.6
2022-10-25T22:51:04.541Z,20.59
2022-10-25T22:55:56.778Z,20.6
2022-10-25T23:00:49.338Z,20.61
2022-10-25T23:05:41.648Z,20.57
2022-10-25T23:10:34.070Z,20.58
2022-10-25T23:15:26.637Z,20.57
2022-10-25T23:20:19.207Z,20.55
2022-10-25T23:25:11.848Z,20.52
2022-10-25T23:30:04.369Z,20.51
2022-10-25T23:34:57.132Z,20.52
2022-10-25T23:39:49.190Z,20.53
2022-10-25T23:44:41.895Z,20.51
2022-10-25T23:49:34.477Z,20.51
2022-10-25T23:54:27.204Z,20.49
2022-10-25T23:59:19.813Z,20.49
